Terminal Aerodrome Forecast
Issued by NWS Mt. Holly, NJ

Home | Current Version | Previous Version | Text Only | Print | Product List | Glossary On
Versions: 1 2 3 4 5 6 7 8 9 10 11 12 13 14 15 16 17 18 19 20 21 22 23 24 25 26 27 28 29 30 31 32 33 34 35 36 37 38 39 40 41 42
451
FTAK31 PANC 250908 AAA
TAFABE
TAF AMD
PABE 250908Z 2509/2606 33008KT P6SM BKN070
     FM251200 33006KT P6SM SCT040
     FM251900 02010G18KT P6SM BKN050
     FM260400 03009KT P6SM BKN060=

USA.gov is the U.S. government's official web portal to all federal, state and local government web resources and services.